sensor_id;sensor_type;location;lat;lon;timestamp;temperature;humidity
13642;DHT22;6894;52.196;9.904;2023-07-13T00:01:39;19.40;99.90
13642;DHT22;6894;52.196;9.904;2023-07-13T00:04:06;19.40;99.90
13642;DHT22;6894;52.196;9.904;2023-07-13T00:06:33;19.30;99.90
13642;DHT22;6894;52.196;9.904;2023-07-13T00:09:01;19.30;99.90
13642;DHT22;6894;52.196;9.904;2023-07-13T00:11:28;19.40;99.90
13642;DHT22;6894;52.196;9.904;2023-07-13T00:13:55;19.30;99.90
13642;DHT22;6894;52.196;9.904;2023-07-13T00:16:22;19.20;99.90
13642;DHT22;6894;52.196;9.904;2023-07-13T00:18:50;19.20;99.90
13642;DHT22;6894;52.196;9.904;2023-07-13T00:21:18;19.20;99.90
13642;DHT22;6894;52.196;9.904;2023-07-13T00:23:44;19.10;99.90
13642;DHT22;6894;52.196;9.904;2023-07-13T00:26:12;19.10;99.90
13642;DHT22;6894;52.196;9.904;2023-07-13T00:28:39;19.10;99.90
13642;DHT22;6894;52.196;9.904;2023-07-13T00:31:07;19.10;99.90
13642;DHT22;6894;52.196;9.904;2023-07-13T00:33:34;19.00;99.90
13642;DHT22;6894;52.196;9.904;2023-07-13T00:36:03;19.00;99.90
13642;DHT22;6894;52.196;9.904;2023-07-13T00:38:30;19.00;99.90
13642;DHT22;6894;52.196;9.904;2023-07-13T00:40:57;18.80;99.90
13642;DHT22;6894;52.196;9.904;2023-07-13T00:43:27;18.90;99.90
13642;DHT22;6894;52.196;9.904;2023-07-13T00:46:23;18.90;99.90
13642;DHT22;6894;52.196;9.904;2023-07-13T00:48:51;18.90;99.90
13642;DHT22;6894;52.196;9.904;2023-07-13T00:51:30;18.90;99.90
13642;DHT22;6894;52.196;9.904;2023-07-13T00:53:59;18.90;99.90
13642;DHT22;6894;52.196;9.904;2023-07-13T00:56:27;18.90;99.90
13642;DHT22;6894;52.196;9.904;2023-07-13T00:58:55;18.80;99.90
13642;DHT22;6894;52.196;9.904;2023-07-13T01:01:22;18.80;99.90
13642;DHT22;6894;52.196;9.904;2023-07-13T01:03:49;18.80;99.90
13642;DHT22;6894;52.196;9.904;2023-07-13T01:06:16;18.70;99.90
13642;DHT22;6894;52.196;9.904;2023-07-13T01:08:45;18.70;99.90
13642;DHT22;6894;52.196;9.904;2023-07-13T01:11:11;18.70;99.90
13642;DHT22;6894;52.196;9.904;2023-07-13T01:13:38;18.70;99.90
13642;DHT22;6894;52.196;9.904;2023-07-13T01:16:13;18.70;99.90
13642;DHT22;6894;52.196;9.904;2023-07-13T01:18:41;18.60;99.90
13642;DHT22;6894;52.196;9.904;2023-07-13T01:21:09;18.60;99.90
13642;DHT22;6894;52.196;9.904;2023-07-13T01:23:36;18.50;99.90
13642;DHT22;6894;52.196;9.904;2023-07-13T01:26:02;18.60;99.90
13642;DHT22;6894;52.196;9.904;2023-07-13T01:28:29;18.50;99.90
13642;DHT22;6894;52.196;9.904;2023-07-13T01:30:57;18.40;99.90
13642;DHT22;6894;52.196;9.904;2023-07-13T01:33:25;18.40;99.90
13642;DHT22;6894;52.196;9.904;2023-07-13T01:35:51;18.30;99.90
13642;DHT22;6894;52.196;9.904;2023-07-13T01:38:21;18.10;99.90
13642;DHT22;6894;52.196;9.904;2023-07-13T01:40:49;18.10;99.90
13642;DHT22;6894;52.196;9.904;2023-07-13T01:43:16;18.00;99.90
13642;DHT22;6894;52.196;9.904;2023-07-13T01:45:43;18.00;99.90
13642;DHT22;6894;52.196;9.904;2023-07-13T01:48:10;18.00;99.90
13642;DHT22;6894;52.196;9.904;2023-07-13T01:50:37;18.00;99.90
13642;DHT22;6894;52.196;9.904;2023-07-13T01:53:05;18.00;99.90
13642;DHT22;6894;52.196;9.904;2023-07-13T01:55:33;18.00;99.90
13642;DHT22;6894;52.196;9.904;2023-07-13T01:58:00;18.00;99.90
13642;DHT22;6894;52.196;9.904;2023-07-13T02:00:28;18.00;99.90
13642;DHT22;6894;52.196;9.904;2023-07-13T02:02:54;18.00;99.90
13642;DHT22;6894;52.196;9.904;2023-07-13T02:05:22;18.00;99.90
13642;DHT22;6894;52.196;9.904;2023-07-13T02:07:48;17.90;99.90
13642;DHT22;6894;52.196;9.904;2023-07-13T02:10:16;17.90;99.90
13642;DHT22;6894;52.196;9.904;2023-07-13T02:12:45;18.00;99.90
13642;DHT22;6894;52.196;9.904;2023-07-13T02:15:11;17.90;99.90
13642;DHT22;6894;52.196;9.904;2023-07-13T02:17:38;18.00;99.90
13642;DHT22;6894;52.196;9.904;2023-07-13T02:20:06;17.90;99.90
13642;DHT22;6894;52.196;9.904;2023-07-13T02:22:33;17.90;99.90
13642;DHT22;6894;52.196;9.904;2023-07-13T02:25:00;17.90;99.90
13642;DHT22;6894;52.196;9.904;2023-07-13T02:27:27;17.80;99.90
13642;DHT22;6894;52.196;9.904;2023-07-13T02:29:55;17.70;99.90
13642;DHT22;6894;52.196;9.904;2023-07-13T02:32:22;17.70;99.90
13642;DHT22;6894;52.196;9.904;2023-07-13T02:34:50;17.60;99.90
13642;DHT22;6894;52.196;9.904;2023-07-13T02:37:17;17.60;99.90
13642;DHT22;6894;52.196;9.904;2023-07-13T02:39:44;17.60;99.90
13642;DHT22;6894;52.196;9.904;2023-07-13T02:42:11;17.50;99.90
13642;DHT22;6894;52.196;9.904;2023-07-13T02:44:37;17.50;99.90
13642;DHT22;6894;52.196;9.904;2023-07-13T02:47:06;17.40;99.90
13642;DHT22;6894;52.196;9.904;2023-07-13T02:49:33;17.50;99.90
13642;DHT22;6894;52.196;9.904;2023-07-13T02:51:59;17.50;99.90
13642;DHT22;6894;52.196;9.904;2023-07-13T02:54:26;17.50;99.90
13642;DHT22;6894;52.196;9.904;2023-07-13T02:56:53;17.50;99.90
13642;DHT22;6894;52.196;9.904;2023-07-13T02:59:20;17.50;99.90
13642;DHT22;6894;52.196;9.904;2023-07-13T03:01:46;17.50;99.90
13642;DHT22;6894;52.196;9.904;2023-07-13T03:04:14;17.50;99.90
13642;DHT22;6894;52.196;9.904;2023-07-13T03:06:44;17.50;99.90
13642;DHT22;6894;52.196;9.904;2023-07-13T03:09:11;17.50;99.90
13642;DHT22;6894;52.196;9.904;2023-07-13T03:11:38;17.50;99.90
13642;DHT22;6894;52.196;9.904;2023-07-13T03:14:05;17.50;99.90
13642;DHT22;6894;52.196;9.904;2023-07-13T03:16:32;17.40;99.90
13642;DHT22;6894;52.196;9.904;2023-07-13T03:18:58;17.50;99.90
13642;DHT22;6894;52.196;9.904;2023-07-13T03:21:26;17.40;99.90
13642;DHT22;6894;52.196;9.904;2023-07-13T03:23:53;17.50;99.90
13642;DHT22;6894;52.196;9.904;2023-07-13T03:26:20;17.40;99.90
13642;DHT22;6894;52.196;9.904;2023-07-13T03:28:47;17.50;99.90
13642;DHT22;6894;52.196;9.904;2023-07-13T03:31:19;17.40;99.90
13642;DHT22;6894;52.196;9.904;2023-07-13T03:33:46;17.40;99.90
13642;DHT22;6894;52.196;9.904;2023-07-13T03:36:16;17.30;99.90
13642;DHT22;6894;52.196;9.904;2023-07-13T03:38:46;17.40;99.90
13642;DHT22;6894;52.196;9.904;2023-07-13T03:41:13;17.30;99.90
13642;DHT22;6894;52.196;9.904;2023-07-13T03:43:40;17.30;99.90
13642;DHT22;6894;52.196;9.904;2023-07-13T03:46:07;17.40;99.90
13642;DHT22;6894;52.196;9.904;2023-07-13T03:48:33;17.30;99.90
13642;DHT22;6894;52.196;9.904;2023-07-13T03:51:00;17.30;99.90
13642;DHT22;6894;52.196;9.904;2023-07-13T03:53:27;17.30;99.90
13642;DHT22;6894;52.196;9.904;2023-07-13T03:55:55;17.30;99.90
13642;DHT22;6894;52.196;9.904;2023-07-13T03:58:30;17.30;99.90
13642;DHT22;6894;52.196;9.904;2023-07-13T04:00:58;17.30;99.90
13642;DHT22;6894;52.196;9.904;2023-07-13T04:03:26;17.40;99.90
13642;DHT22;6894;52.196;9.904;2023-07-13T04:05:54;17.40;99.90
13642;DHT22;6894;52.196;9.904;2023-07-13T04:08:25;17.40;99.90
13642;DHT22;6894;52.196;9.904;2023-07-13T04:10:52;17.50;99.90
13642;DHT22;6894;52.196;9.904;2023-07-13T04:13:20;17.40;99.90
13642;DHT22;6894;52.196;9.904;2023-07-13T04:15:47;17.50;99.90
13642;DHT22;6894;52.196;9.904;2023-07-13T04:18:14;17.60;99.90
13642;DHT22;6894;52.196;9.904;2023-07-13T04:20:41;17.70;99.90
13642;DHT22;6894;52.196;9.904;2023-07-13T04:23:07;17.60;99.90
13642;DHT22;6894;52.196;9.904;2023-07-13T04:25:34;17.60;99.90
13642;DHT22;6894;52.196;9.904;2023-07-13T04:28:02;17.60;99.90
13642;DHT22;6894;52.196;9.904;2023-07-13T04:30:31;17.70;99.90
13642;DHT22;6894;52.196;9.904;2023-07-13T04:32:58;17.70;99.90
13642;DHT22;6894;52.196;9.904;2023-07-13T04:35:24;17.70;99.90
13642;DHT22;6894;52.196;9.904;2023-07-13T04:37:51;17.70;99.90
13642;DHT22;6894;52.196;9.904;2023-07-13T04:40:19;17.80;99.90
13642;DHT22;6894;52.196;9.904;2023-07-13T04:42:46;17.70;99.90
13642;DHT22;6894;52.196;9.904;2023-07-13T04:45:14;17.90;99.90
13642;DHT22;6894;52.196;9.904;2023-07-13T04:47:42;17.80;99.90
13642;DHT22;6894;52.196;9.904;2023-07-13T04:50:09;17.90;99.90
13642;DHT22;6894;52.196;9.904;2023-07-13T04:52:37;18.00;99.90
13642;DHT22;6894;52.196;9.904;2023-07-13T04:55:04;18.10;99.90
13642;DHT22;6894;52.196;9.904;2023-07-13T04:57:31;18.20;99.90
13642;DHT22;6894;52.196;9.904;2023-07-13T04:59:59;18.30;99.90
13642;DHT22;6894;52.196;9.904;2023-07-13T05:02:26;18.40;99.90
13642;DHT22;6894;52.196;9.904;2023-07-13T05:04:55;18.50;99.90
13642;DHT22;6894;52.196;9.904;2023-07-13T05:07:22;18.50;99.90
13642;DHT22;6894;52.196;9.904;2023-07-13T05:09:48;18.70;99.90
13642;DHT22;6894;52.196;9.904;2023-07-13T05:12:15;18.70;99.90
13642;DHT22;6894;52.196;9.904;2023-07-13T05:14:42;18.80;99.90
13642;DHT22;6894;52.196;9.904;2023-07-13T05:17:08;18.70;99.90
13642;DHT22;6894;52.196;9.904;2023-07-13T05:19:35;18.70;99.90
13642;DHT22;6894;52.196;9.904;2023-07-13T05:22:04;18.80;99.90
13642;DHT22;6894;52.196;9.904;2023-07-13T05:24:31;18.80;99.90
13642;DHT22;6894;52.196;9.904;2023-07-13T05:26:57;19.00;99.90
13642;DHT22;6894;52.196;9.904;2023-07-13T05:29:24;19.00;99.90
13642;DHT22;6894;52.196;9.904;2023-07-13T05:31:51;19.10;99.90
13642;DHT22;6894;52.196;9.904;2023-07-13T05:34:17;19.10;99.90
13642;DHT22;6894;52.196;9.904;2023-07-13T05:36:44;19.00;99.90
13642;DHT22;6894;52.196;9.904;2023-07-13T05:39:12;18.80;99.90
13642;DHT22;6894;52.196;9.904;2023-07-13T05:41:39;18.70;99.90
13642;DHT22;6894;52.196;9.904;2023-07-13T05:44:06;18.70;99.90
13642;DHT22;6894;52.196;9.904;2023-07-13T05:46:33;18.70;99.90
13642;DHT22;6894;52.196;9.904;2023-07-13T05:49:00;18.80;99.90
13642;DHT22;6894;52.196;9.904;2023-07-13T05:51:26;18.90;99.90
13642;DHT22;6894;52.196;9.904;2023-07-13T05:53:53;19.00;99.90
13642;DHT22;6894;52.196;9.904;2023-07-13T05:56:21;19.20;99.90
13642;DHT22;6894;52.196;9.904;2023-07-13T05:58:48;19.40;99.90
13642;DHT22;6894;52.196;9.904;2023-07-13T06:01:16;19.40;99.90
13642;DHT22;6894;52.196;9.904;2023-07-13T06:03:43;19.60;99.90
13642;DHT22;6894;52.196;9.904;2023-07-13T06:06:10;19.70;99.90
13642;DHT22;6894;52.196;9.904;2023-07-13T06:08:37;19.70;99.90
13642;DHT22;6894;52.196;9.904;2023-07-13T06:11:05;19.90;99.90
13642;DHT22;6894;52.196;9.904;2023-07-13T06:13:34;20.00;99.90
13642;DHT22;6894;52.196;9.904;2023-07-13T06:16:01;20.00;99.90
13642;DHT22;6894;52.196;9.904;2023-07-13T06:18:29;19.90;99.90
13642;DHT22;6894;52.196;9.904;2023-07-13T06:20:56;19.40;99.90
13642;DHT22;6894;52.196;9.904;2023-07-13T06:23:23;20.20;99.90
13642;DHT22;6894;52.196;9.904;2023-07-13T06:25:50;20.20;99.90
13642;DHT22;6894;52.196;9.904;2023-07-13T06:28:17;20.20;99.90
13642;DHT22;6894;52.196;9.904;2023-07-13T06:30:45;20.30;99.90
13642;DHT22;6894;52.196;9.904;2023-07-13T06:33:12;20.30;99.90
13642;DHT22;6894;52.196;9.904;2023-07-13T06:35:38;20.30;99.90
13642;DHT22;6894;52.196;9.904;2023-07-13T06:38:05;20.30;99.90
13642;DHT22;6894;52.196;9.904;2023-07-13T06:40:32;20.20;99.90
13642;DHT22;6894;52.196;9.904;2023-07-13T06:42:58;20.30;99.90
13642;DHT22;6894;52.196;9.904;2023-07-13T06:45:25;20.30;99.90
13642;DHT22;6894;52.196;9.904;2023-07-13T06:47:53;20.00;99.90
13642;DHT22;6894;52.196;9.904;2023-07-13T06:50:20;19.90;99.90
13642;DHT22;6894;52.196;9.904;2023-07-13T06:52:47;19.80;99.90
13642;DHT22;6894;52.196;9.904;2023-07-13T06:55:14;19.60;99.90
13642;DHT22;6894;52.196;9.904;2023-07-13T06:57:41;19.60;99.90
13642;DHT22;6894;52.196;9.904;2023-07-13T07:00:08;19.30;99.90
13642;DHT22;6894;52.196;9.904;2023-07-13T07:02:35;19.40;99.90
13642;DHT22;6894;52.196;9.904;2023-07-13T07:05:04;19.40;99.90
13642;DHT22;6894;52.196;9.904;2023-07-13T07:07:30;19.50;99.90
13642;DHT22;6894;52.196;9.904;2023-07-13T07:09:57;19.40;99.90
13642;DHT22;6894;52.196;9.904;2023-07-13T07:12:24;19.40;99.90
13642;DHT22;6894;52.196;9.904;2023-07-13T07:14:50;19.30;99.90
13642;DHT22;6894;52.196;9.904;2023-07-13T07:17:17;19.30;99.90
13642;DHT22;6894;52.196;9.904;2023-07-13T07:19:44;19.40;99.90
13642;DHT22;6894;52.196;9.904;2023-07-13T07:22:12;19.40;99.90
13642;DHT22;6894;52.196;9.904;2023-07-13T07:24:39;19.40;99.90
13642;DHT22;6894;52.196;9.904;2023-07-13T07:27:06;19.40;99.90
13642;DHT22;6894;52.196;9.904;2023-07-13T07:29:33;19.50;99.90
13642;DHT22;6894;52.196;9.904;2023-07-13T07:31:59;19.50;99.90
13642;DHT22;6894;52.196;9.904;2023-07-13T07:34:26;19.50;99.90
13642;DHT22;6894;52.196;9.904;2023-07-13T07:36:53;19.60;99.90
13642;DHT22;6894;52.196;9.904;2023-07-13T07:39:21;19.60;99.90
13642;DHT22;6894;52.196;9.904;2023-07-13T07:41:48;19.60;99.90
13642;DHT22;6894;52.196;9.904;2023-07-13T07:44:15;19.70;99.90
13642;DHT22;6894;52.196;9.904;2023-07-13T07:46:41;19.80;99.90
13642;DHT22;6894;52.196;9.904;2023-07-13T07:49:08;19.80;99.90
13642;DHT22;6894;52.196;9.904;2023-07-13T07:51:36;19.90;99.90
13642;DHT22;6894;52.196;9.904;2023-07-13T07:54:03;20.00;99.90
13642;DHT22;6894;52.196;9.904;2023-07-13T07:56:32;20.10;99.90
13642;DHT22;6894;52.196;9.904;2023-07-13T07:58:58;20.10;99.90
13642;DHT22;6894;52.196;9.904;2023-07-13T08:01:25;20.20;99.90
13642;DHT22;6894;52.196;9.904;2023-07-13T08:03:52;20.20;99.90
13642;DHT22;6894;52.196;9.904;2023-07-13T08:06:19;20.30;99.90
13642;DHT22;6894;52.196;9.904;2023-07-13T08:08:47;20.30;99.90
13642;DHT22;6894;52.196;9.904;2023-07-13T08:11:14;20.30;99.90
13642;DHT22;6894;52.196;9.904;2023-07-13T08:13:42;20.40;99.90
13642;DHT22;6894;52.196;9.904;2023-07-13T08:16:09;20.50;99.90
13642;DHT22;6894;52.196;9.904;2023-07-13T08:18:37;20.40;99.90
13642;DHT22;6894;52.196;9.904;2023-07-13T08:21:04;20.50;99.90
13642;DHT22;6894;52.196;9.904;2023-07-13T08:23:31;20.50;99.90
13642;DHT22;6894;52.196;9.904;2023-07-13T08:25:58;20.60;99.90
13642;DHT22;6894;52.196;9.904;2023-07-13T08:28:27;20.70;99.90
13642;DHT22;6894;52.196;9.904;2023-07-13T08:30:55;20.90;99.90
13642;DHT22;6894;52.196;9.904;2023-07-13T08:33:26;20.90;99.90
13642;DHT22;6894;52.196;9.904;2023-07-13T08:35:53;21.00;99.90
13642;DHT22;6894;52.196;9.904;2023-07-13T08:38:19;21.20;99.90
13642;DHT22;6894;52.196;9.904;2023-07-13T08:40:50;21.20;99.90
13642;DHT22;6894;52.196;9.904;2023-07-13T08:43:25;21.40;99.90
13642;DHT22;6894;52.196;9.904;2023-07-13T08:45:57;21.30;99.90
13642;DHT22;6894;52.196;9.904;2023-07-13T08:48:28;21.30;99.90
13642;DHT22;6894;52.196;9.904;2023-07-13T08:51:00;21.40;99.90
13642;DHT22;6894;52.196;9.904;2023-07-13T08:53:33;21.40;99.90
13642;DHT22;6894;52.196;9.904;2023-07-13T08:56:01;21.50;99.90
13642;DHT22;6894;52.196;9.904;2023-07-13T08:58:29;21.80;99.90
13642;DHT22;6894;52.196;9.904;2023-07-13T09:01:02;21.90;99.90
13642;DHT22;6894;52.196;9.904;2023-07-13T09:03:37;22.20;99.90
13642;DHT22;6894;52.196;9.904;2023-07-13T09:06:12;22.40;99.90
13642;DHT22;6894;52.196;9.904;2023-07-13T09:08:48;22.50;99.90
13642;DHT22;6894;52.196;9.904;2023-07-13T09:11:37;22.70;99.90
13642;DHT22;6894;52.196;9.904;2023-07-13T09:14:31;23.00;99.90
13642;DHT22;6894;52.196;9.904;2023-07-13T09:17:04;23.10;99.90
13642;DHT22;6894;52.196;9.904;2023-07-13T09:19:32;23.20;99.90
13642;DHT22;6894;52.196;9.904;2023-07-13T09:22:02;23.30;99.90
13642;DHT22;6894;52.196;9.904;2023-07-13T09:24:36;22.90;99.90
13642;DHT22;6894;52.196;9.904;2023-07-13T09:27:12;22.70;99.90
13642;DHT22;6894;52.196;9.904;2023-07-13T09:29:45;22.50;99.90
13642;DHT22;6894;52.196;9.904;2023-07-13T09:32:18;22.20;99.90
13642;DHT22;6894;52.196;9.904;2023-07-13T09:34:50;22.00;99.90
13642;DHT22;6894;52.196;9.904;2023-07-13T09:37:19;21.90;99.90
13642;DHT22;6894;52.196;9.904;2023-07-13T09:39:49;21.60;99.90
13642;DHT22;6894;52.196;9.904;2023-07-13T09:42:18;21.70;99.90
13642;DHT22;6894;52.196;9.904;2023-07-13T09:44:53;22.00;99.90
13642;DHT22;6894;52.196;9.904;2023-07-13T09:47:23;22.30;99.90
13642;DHT22;6894;52.196;9.904;2023-07-13T09:49:56;22.30;99.90
13642;DHT22;6894;52.196;9.904;2023-07-13T09:52:24;22.10;99.90
13642;DHT22;6894;52.196;9.904;2023-07-13T09:54:54;22.40;99.90
13642;DHT22;6894;52.196;9.904;2023-07-13T09:57:26;22.60;99.90
13642;DHT22;6894;52.196;9.904;2023-07-13T09:59:54;22.80;99.90
13642;DHT22;6894;52.196;9.904;2023-07-13T10:02:29;23.10;99.90
13642;DHT22;6894;52.196;9.904;2023-07-13T10:04:59;23.30;99.90
13642;DHT22;6894;52.196;9.904;2023-07-13T10:07:27;23.40;99.90
13642;DHT22;6894;52.196;9.904;2023-07-13T10:09:54;23.40;99.90
13642;DHT22;6894;52.196;9.904;2023-07-13T10:12:21;23.70;99.90
13642;DHT22;6894;52.196;9.904;2023-07-13T10:14:51;23.90;99.90
13642;DHT22;6894;52.196;9.904;2023-07-13T10:17:20;24.10;99.90
13642;DHT22;6894;52.196;9.904;2023-07-13T10:19:53;24.00;99.90
13642;DHT22;6894;52.196;9.904;2023-07-13T10:22:31;23.90;99.90
13642;DHT22;6894;52.196;9.904;2023-07-13T10:25:00;24.20;99.90
13642;DHT22;6894;52.196;9.904;2023-07-13T10:27:31;24.10;99.90
13642;DHT22;6894;52.196;9.904;2023-07-13T10:30:04;24.30;99.90
13642;DHT22;6894;52.196;9.904;2023-07-13T10:32:34;24.80;99.90
13642;DHT22;6894;52.196;9.904;2023-07-13T10:35:03;24.70;99.90
13642;DHT22;6894;52.196;9.904;2023-07-13T10:37:40;24.60;99.90
13642;DHT22;6894;52.196;9.904;2023-07-13T10:40:13;24.40;99.90
13642;DHT22;6894;52.196;9.904;2023-07-13T10:42:45;24.40;99.90
13642;DHT22;6894;52.196;9.904;2023-07-13T10:45:14;24.50;99.90
13642;DHT22;6894;52.196;9.904;2023-07-13T10:47:42;24.80;99.90
13642;DHT22;6894;52.196;9.904;2023-07-13T10:50:15;25.00;99.90
13642;DHT22;6894;52.196;9.904;2023-07-13T10:52:46;24.40;99.90
13642;DHT22;6894;52.196;9.904;2023-07-13T10:55:37;24.20;99.90
13642;DHT22;6894;52.196;9.904;2023-07-13T10:58:13;24.00;99.90
13642;DHT22;6894;52.196;9.904;2023-07-13T11:00:47;24.50;99.90
13642;DHT22;6894;52.196;9.904;2023-07-13T11:03:17;25.20;99.90
13642;DHT22;6894;52.196;9.904;2023-07-13T11:05:50;25.20;99.90
13642;DHT22;6894;52.196;9.904;2023-07-13T11:08:20;24.90;99.90
13642;DHT22;6894;52.196;9.904;2023-07-13T11:10:53;24.40;99.90
13642;DHT22;6894;52.196;9.904;2023-07-13T11:13:38;24.40;99.90
13642;DHT22;6894;52.196;9.904;2023-07-13T11:16:43;24.40;99.90
13642;DHT22;6894;52.196;9.904;2023-07-13T11:22:25;24.50;99.90
13642;DHT22;6894;52.196;9.904;2023-07-13T11:25:06;24.40;99.90
13642;DHT22;6894;52.196;9.904;2023-07-13T11:27:51;24.30;99.90
13642;DHT22;6894;52.196;9.904;2023-07-13T11:30:31;23.90;99.90
13642;DHT22;6894;52.196;9.904;2023-07-13T11:33:11;23.80;99.90
13642;DHT22;6894;52.196;9.904;2023-07-13T11:35:46;23.60;99.90
13642;DHT22;6894;52.196;9.904;2023-07-13T11:38:20;23.70;99.90
13642;DHT22;6894;52.196;9.904;2023-07-13T11:40:48;24.00;99.90
13642;DHT22;6894;52.196;9.904;2023-07-13T11:43:16;24.20;99.90
13642;DHT22;6894;52.196;9.904;2023-07-13T11:45:44;24.40;99.90
13642;DHT22;6894;52.196;9.904;2023-07-13T11:48:19;24.60;99.90
13642;DHT22;6894;52.196;9.904;2023-07-13T11:50:51;24.70;99.90
13642;DHT22;6894;52.196;9.904;2023-07-13T11:53:19;25.10;99.90
13642;DHT22;6894;52.196;9.904;2023-07-13T11:55:46;25.60;99.90
13642;DHT22;6894;52.196;9.904;2023-07-13T11:58:14;25.80;99.90
13642;DHT22;6894;52.196;9.904;2023-07-13T12:00:43;25.80;99.90
13642;DHT22;6894;52.196;9.904;2023-07-13T12:03:11;26.00;99.90
13642;DHT22;6894;52.196;9.904;2023-07-13T12:05:55;25.30;99.90
13642;DHT22;6894;52.196;9.904;2023-07-13T12:08:24;25.80;99.90
13642;DHT22;6894;52.196;9.904;2023-07-13T12:11:00;25.70;99.90
13642;DHT22;6894;52.196;9.904;2023-07-13T12:13:27;25.20;99.90
13642;DHT22;6894;52.196;9.904;2023-07-13T12:15:57;25.40;99.90
13642;DHT22;6894;52.196;9.904;2023-07-13T12:18:29;25.40;99.90
13642;DHT22;6894;52.196;9.904;2023-07-13T12:20:58;25.60;99.90
13642;DHT22;6894;52.196;9.904;2023-07-13T12:23:29;25.70;99.90
13642;DHT22;6894;52.196;9.904;2023-07-13T12:25:58;25.70;99.90
13642;DHT22;6894;52.196;9.904;2023-07-13T12:28:32;25.40;99.90
13642;DHT22;6894;52.196;9.904;2023-07-13T12:31:02;25.70;99.90
13642;DHT22;6894;52.196;9.904;2023-07-13T12:33:30;25.00;99.90
13642;DHT22;6894;52.196;9.904;2023-07-13T12:36:00;25.30;99.90
13642;DHT22;6894;52.196;9.904;2023-07-13T12:38:30;25.20;99.90
13642;DHT22;6894;52.196;9.904;2023-07-13T12:40:57;25.00;99.90
13642;DHT22;6894;52.196;9.904;2023-07-13T12:43:26;24.30;99.90
13642;DHT22;6894;52.196;9.904;2023-07-13T12:45:59;24.50;99.90
13642;DHT22;6894;52.196;9.904;2023-07-13T12:48:26;25.00;99.90
13642;DHT22;6894;52.196;9.904;2023-07-13T12:50:55;25.60;99.90
13642;DHT22;6894;52.196;9.904;2023-07-13T12:53:27;25.50;99.90
13642;DHT22;6894;52.196;9.904;2023-07-13T12:55:59;25.40;99.90
13642;DHT22;6894;52.196;9.904;2023-07-13T12:58:31;25.40;99.90
13642;DHT22;6894;52.196;9.904;2023-07-13T13:01:01;25.30;99.90
13642;DHT22;6894;52.196;9.904;2023-07-13T13:03:31;25.40;99.90
13642;DHT22;6894;52.196;9.904;2023-07-13T13:06:00;25.60;99.90
13642;DHT22;6894;52.196;9.904;2023-07-13T13:08:28;25.70;99.90
13642;DHT22;6894;52.196;9.904;2023-07-13T13:10:55;26.00;99.90
13642;DHT22;6894;52.196;9.904;2023-07-13T13:13:23;26.20;99.90
13642;DHT22;6894;52.196;9.904;2023-07-13T13:15:51;26.10;99.90
13642;DHT22;6894;52.196;9.904;2023-07-13T13:18:18;26.20;99.90
13642;DHT22;6894;52.196;9.904;2023-07-13T13:20:46;26.10;99.90
13642;DHT22;6894;52.196;9.904;2023-07-13T13:23:13;25.70;99.90
13642;DHT22;6894;52.196;9.904;2023-07-13T13:25:43;25.20;99.90
13642;DHT22;6894;52.196;9.904;2023-07-13T13:28:14;25.10;99.90
13642;DHT22;6894;52.196;9.904;2023-07-13T13:30:43;25.00;99.90
13642;DHT22;6894;52.196;9.904;2023-07-13T13:33:12;25.00;99.90
13642;DHT22;6894;52.196;9.904;2023-07-13T13:35:40;25.10;99.90
13642;DHT22;6894;52.196;9.904;2023-07-13T13:38:14;25.20;99.90
13642;DHT22;6894;52.196;9.904;2023-07-13T13:40:42;25.20;99.90
13642;DHT22;6894;52.196;9.904;2023-07-13T13:43:14;25.40;99.90
13642;DHT22;6894;52.196;9.904;2023-07-13T13:45:44;25.30;99.90
13642;DHT22;6894;52.196;9.904;2023-07-13T13:48:15;24.90;99.90
13642;DHT22;6894;52.196;9.904;2023-07-13T13:50:42;24.60;99.90
13642;DHT22;6894;52.196;9.904;2023-07-13T13:53:11;24.40;99.90
13642;DHT22;6894;52.196;9.904;2023-07-13T13:55:39;24.30;99.90
13642;DHT22;6894;52.196;9.904;2023-07-13T13:58:07;24.10;99.90
13642;DHT22;6894;52.196;9.904;2023-07-13T14:00:34;24.00;99.90
13642;DHT22;6894;52.196;9.904;2023-07-13T14:03:03;23.90;99.90
13642;DHT22;6894;52.196;9.904;2023-07-13T14:05:31;24.20;99.90
13642;DHT22;6894;52.196;9.904;2023-07-13T14:07:58;24.40;99.90
13642;DHT22;6894;52.196;9.904;2023-07-13T14:10:25;24.60;99.90
13642;DHT22;6894;52.196;9.904;2023-07-13T14:12:54;24.70;99.90
13642;DHT22;6894;52.196;9.904;2023-07-13T14:15:23;24.40;99.90
13642;DHT22;6894;52.196;9.904;2023-07-13T14:17:50;23.90;99.90
13642;DHT22;6894;52.196;9.904;2023-07-13T14:20:19;23.70;99.90
13642;DHT22;6894;52.196;9.904;2023-07-13T14:22:48;22.90;99.90
13642;DHT22;6894;52.196;9.904;2023-07-13T14:25:16;22.60;99.90
13642;DHT22;6894;52.196;9.904;2023-07-13T14:27:44;22.10;99.90
13642;DHT22;6894;52.196;9.904;2023-07-13T14:30:16;21.90;99.90
13642;DHT22;6894;52.196;9.904;2023-07-13T14:32:43;21.40;99.90
13642;DHT22;6894;52.196;9.904;2023-07-13T14:35:11;20.90;99.90
13642;DHT22;6894;52.196;9.904;2023-07-13T14:37:40;20.50;1.00
13642;DHT22;6894;52.196;9.904;2023-07-13T14:40:13;20.00;99.90
13642;DHT22;6894;52.196;9.904;2023-07-13T14:42:40;19.90;99.90
13642;DHT22;6894;52.196;9.904;2023-07-13T14:45:13;19.80;99.90
13642;DHT22;6894;52.196;9.904;2023-07-13T14:47:40;19.80;99.90
13642;DHT22;6894;52.196;9.904;2023-07-13T14:50:12;19.60;99.90
13642;DHT22;6894;52.196;9.904;2023-07-13T14:52:41;19.70;99.90
13642;DHT22;6894;52.196;9.904;2023-07-13T14:55:11;19.50;99.90
13642;DHT22;6894;52.196;9.904;2023-07-13T14:57:38;19.30;99.90
13642;DHT22;6894;52.196;9.904;2023-07-13T15:00:09;19.30;99.90
13642;DHT22;6894;52.196;9.904;2023-07-13T15:02:39;19.40;99.90
13642;DHT22;6894;52.196;9.904;2023-07-13T15:05:13;19.30;99.90
13642;DHT22;6894;52.196;9.904;2023-07-13T15:07:42;19.10;99.90
13642;DHT22;6894;52.196;9.904;2023-07-13T15:10:14;18.90;99.90
13642;DHT22;6894;52.196;9.904;2023-07-13T15:12:41;18.80;99.90
13642;DHT22;6894;52.196;9.904;2023-07-13T15:15:08;18.50;99.90
13642;DHT22;6894;52.196;9.904;2023-07-13T15:17:37;18.30;99.90
13642;DHT22;6894;52.196;9.904;2023-07-13T15:20:11;18.20;99.90
13642;DHT22;6894;52.196;9.904;2023-07-13T15:22:43;18.20;99.90
13642;DHT22;6894;52.196;9.904;2023-07-13T15:25:15;18.00;99.90
13642;DHT22;6894;52.196;9.904;2023-07-13T15:27:42;17.90;99.90
13642;DHT22;6894;52.196;9.904;2023-07-13T15:30:10;18.00;99.90
13642;DHT22;6894;52.196;9.904;2023-07-13T15:32:37;18.00;99.90
13642;DHT22;6894;52.196;9.904;2023-07-13T15:35:05;17.80;99.90
13642;DHT22;6894;52.196;9.904;2023-07-13T15:37:32;17.90;99.90
13642;DHT22;6894;52.196;9.904;2023-07-13T15:40:00;18.00;99.90
13642;DHT22;6894;52.196;9.904;2023-07-13T15:42:27;17.90;99.90
13642;DHT22;6894;52.196;9.904;2023-07-13T15:44:53;18.00;99.90
13642;DHT22;6894;52.196;9.904;2023-07-13T15:47:20;17.90;99.90
13642;DHT22;6894;52.196;9.904;2023-07-13T15:49:47;18.00;99.90
13642;DHT22;6894;52.196;9.904;2023-07-13T15:52:18;18.00;99.90
13642;DHT22;6894;52.196;9.904;2023-07-13T15:54:46;17.90;99.90
13642;DHT22;6894;52.196;9.904;2023-07-13T15:57:15;17.90;99.90
13642;DHT22;6894;52.196;9.904;2023-07-13T15:59:42;17.80;99.90